Nakhchivan — 9HHK8 — position and weather

sailwx.info

Track history (hours):
 
Tides and Currents Weather Stations Pressure Air Temp Water Temp Dewpoint Dewpoint Depression Visibility Wind Speed Wind Dir Waves Ship Positions

Nakhchivan

Last reported at 2017-Oct-14 17:16 UTC. Time now 2017-Oct-18 18:14 UTC.
Position N 37°25' E 025°55'.

Length 139 m; draft 3.9 m.

Type: Cargo ship. MMSI: 215983000.

Date/timePositionNaut miles runAvg speedWind from/ knotsBaromVisibWave heightAir tempDewpointWater temp
2017-Oct-14 17:16N 37°25' E 025°55'2 7.4
2017-Oct-14 17:00N 37°27' E 025°54'4 7.1
2017-Oct-14 16:30N 37°30' E 025°53'4 7.2
2017-Oct-14 16:00N 37°34' E 025°52'  
2017-Oct-09 10:34N 45°13' E 036°29'1 7.6
2017-Oct-09 10:28N 45°13' E 036°28'3 7.1
2017-Oct-09 09:59N 45°17' E 036°29'3 5.4
2017-Oct-09 09:31N 45°19' E 036°31'3 6.2
2017-Oct-09 09:00N 45°20' E 036°35'3 5.3
2017-Oct-09 08:30N 45°21' E 036°39'3 6.3
2017-Oct-09 08:00N 45°24' E 036°40'3 5.3
2017-Oct-09 07:30N 45°26' E 036°39'  
2017-Oct-06 12:47N 45°31' E 036°37'2 6.8
2017-Oct-06 12:31N 45°31' E 036°39'4 7.4
2017-Oct-06 12:01N 45°32' E 036°45'  
Track history (hours):
 
Tides and Currents Weather Stations Pressure Air Temp Water Temp Dewpoint Dewpoint Depression Visibility Wind Speed Wind Dir Waves Ship Positions

Nakhchivan

Last reported at 2017-Oct-14 17:16 UTC. Time now 2017-Oct-18 18:14 UTC.
Position N 37°25' E 025°55'.

Length 139 m; draft 3.9 m.

Type: Cargo ship. MMSI: 215983000.

Date/timePositionNaut miles runAvg speedWind from/ knotsBaromVisibWave heightAir tempDewpointWater temp
2017-Oct-14 17:16N 37°25' E 025°55'2 7.4
2017-Oct-14 17:00N 37°27' E 025°54'4 7.1
2017-Oct-14 16:30N 37°30' E 025°53'4 7.2
2017-Oct-14 16:00N 37°34' E 025°52'  
2017-Oct-09 10:34N 45°13' E 036°29'1 7.6
2017-Oct-09 10:28N 45°13' E 036°28'3 7.1
2017-Oct-09 09:59N 45°17' E 036°29'3 5.4
2017-Oct-09 09:31N 45°19' E 036°31'3 6.2
2017-Oct-09 09:00N 45°20' E 036°35'3 5.3
2017-Oct-09 08:30N 45°21' E 036°39'3 6.3
2017-Oct-09 08:00N 45°24' E 036°40'3 5.3
2017-Oct-09 07:30N 45°26' E 036°39'  
2017-Oct-06 12:47N 45°31' E 036°37'2 6.8
2017-Oct-06 12:31N 45°31' E 036°39'4 7.4
2017-Oct-06 12:01N 45°32' E 036°45'  

Dump ship's entire track history